Time;durP1;ratioP1;P1;durP2;ratioP2;P2;SDS_P1;SDS_P2;PMS_P1;PMS_P2;Temp;Humidity;BMP_temperature;BMP_pressure;BME280_temperature;BME280_humidity;BME280_pressure;Samples;Min_cycle;Max_cycle;Signal;HPM_P1;HPM_P2
2023/12/09 00:01:15;;;;;;;62.80;19.65;;;;;;;6.12;76.95;100168.81;10297340;28;20058;-57
2023/12/09 00:06:19;;;;;;;66.90;19.80;;;;;;;6.12;76.75;100180.34;10280939;28;20047;-56
2023/12/09 00:11:21;;;;;;;63.70;18.92;;;;;;;6.06;77.15;100196.09;10299221;28;20047;-56
2023/12/09 00:16:22;;;;;;;58.17;18.52;;;;;;;6.03;77.27;100204.44;10304064;28;20061;-59
2023/12/09 00:21:24;;;;;;;56.88;19.45;;;;;;;6.09;77.50;100203.81;10300137;28;20062;-56
2023/12/09 00:26:25;;;;;;;70.95;18.70;;;;;;;6.15;77.40;100203.22;10300413;28;20050;-55
2023/12/09 00:31:27;;;;;;;72.00;20.05;;;;;;;6.14;76.79;100209.53;10292407;28;20061;-55
2023/12/09 00:36:28;;;;;;;53.67;18.10;;;;;;;6.00;77.80;100210.06;10295779;28;20047;-55
2023/12/09 00:41:30;;;;;;;62.60;18.08;;;;;;;6.22;77.36;100200.78;10301010;28;20086;-56
2023/12/09 00:46:31;;;;;;;52.20;18.90;;;;;;;6.22;76.21;100198.97;10297396;28;20047;-58
2023/12/09 00:51:33;;;;;;;62.53;18.85;;;;;;;6.35;75.84;100209.25;10295455;28;20050;-56
2023/12/09 00:56:34;;;;;;;58.67;17.45;;;;;;;6.45;76.37;100214.53;10295580;28;20050;-56
2023/12/09 01:01:36;;;;;;;56.33;18.92;;;;;;;6.49;75.87;100219.38;10300325;28;20094;-57
2023/12/09 01:06:37;;;;;;;58.30;18.63;;;;;;;6.49;76.23;100242.59;10299179;28;20378;-56
2023/12/09 01:11:39;;;;;;;61.28;19.40;;;;;;;6.55;76.20;100233.97;10294661;28;20042;-56
2023/12/09 01:16:40;;;;;;;56.85;18.77;;;;;;;6.55;76.03;100233.97;10295531;28;20898;-56
2023/12/09 01:21:42;;;;;;;52.78;17.65;;;;;;;6.62;75.93;100231.53;10273857;28;20390;-56
2023/12/09 01:26:43;;;;;;;62.13;18.33;;;;;;;6.65;76.54;100236.56;10296144;28;20701;-56
2023/12/09 01:31:45;;;;;;;56.47;18.98;;;;;;;6.69;76.38;100230.75;10300126;28;20762;-55
2023/12/09 01:36:46;;;;;;;59.30;18.38;;;;;;;6.64;76.60;100246.41;10292713;28;20039;-57
2023/12/09 01:41:47;;;;;;;57.83;17.98;;;;;;;6.66;76.12;100254.28;10298803;28;20054;-56
2023/12/09 01:46:49;;;;;;;54.50;19.00;;;;;;;6.70;76.54;100251.13;10298829;28;20478;-56
2023/12/09 01:51:50;;;;;;;52.97;17.80;;;;;;;6.69;76.25;100251.28;10284737;28;20054;-55
2023/12/09 01:56:53;;;;;;;54.95;18.13;;;;;;;6.76;76.42;100252.38;10291238;28;20531;-56
2023/12/09 02:01:55;;;;;;;52.45;17.50;;;;;;;6.81;76.07;100250.03;10296974;28;20041;-55
2023/12/09 02:06:56;;;;;;;58.08;18.70;;;;;;;6.84;75.75;100236.41;10294346;28;20047;-55
2023/12/09 02:12:16;;;;;;;44.67;16.60;;;;;;;6.83;76.17;100237.41;10296499;28;20073;-57
2023/12/09 02:17:25;;;;;;;51.53;17.95;;;;;;;6.89;76.14;100226.09;10296425;28;20086;-57
2023/12/09 02:22:26;;;;;;;50.80;19.10;;;;;;;6.90;75.60;100225.09;10298886;28;20103;-57
2023/12/09 02:27:46;;;;;;;51.38;19.05;;;;;;;6.94;75.67;100206.91;10293243;28;20043;-57
2023/12/09 02:32:49;;;;;;;54.88;18.08;;;;;;;7.01;76.11;100181.25;10279039;28;20054;-57
2023/12/09 02:37:52;;;;;;;52.05;18.35;;;;;;;6.89;76.11;100186.03;10281537;28;20085;-57
2023/12/09 02:42:53;;;;;;;47.03;16.50;;;;;;;6.85;76.16;100181.97;10295678;28;20054;-56
2023/12/09 02:47:55;;;;;;;49.03;17.75;;;;;;;6.65;76.36;100173.28;10293991;28;20138;-57
2023/12/09 02:52:56;;;;;;;55.10;18.48;;;;;;;6.59;76.67;100178.44;10296068;28;20046;-57
2023/12/09 02:57:58;;;;;;;45.58;18.20;;;;;;;6.51;76.26;100157.84;10294797;28;20382;-56
2023/12/09 03:02:59;;;;;;;57.95;19.13;;;;;;;6.46;76.92;100147.63;10286475;28;20481;-57
2023/12/09 03:08:01;;;;;;;55.10;18.60;;;;;;;6.29;76.88;100140.47;10290474;28;20058;-57
2023/12/09 03:13:02;;;;;;;55.15;17.50;;;;;;;6.41;76.00;100130.38;10276643;28;20049;-56
2023/12/09 03:18:04;;;;;;;58.95;19.98;;;;;;;6.39;76.85;100143.88;10288352;28;20045;-57
2023/12/09 03:23:06;;;;;;;59.38;18.55;;;;;;;6.43;76.97;100128.41;10292890;28;20061;-59
2023/12/09 03:28:07;;;;;;;63.72;19.80;;;;;;;6.55;76.33;100132.50;10290597;28;20624;-58
2023/12/09 03:33:09;;;;;;;52.72;18.33;;;;;;;6.61;76.56;100123.03;10281300;28;20046;-58
2023/12/09 03:38:10;;;;;;;52.88;18.55;;;;;;;6.69;76.09;100136.44;10296063;28;20646;-58
2023/12/09 03:43:12;;;;;;;51.88;18.13;;;;;;;6.71;76.00;100137.97;10294461;28;20383;-58
2023/12/09 03:48:13;;;;;;;52.10;20.15;;;;;;;6.76;76.01;100148.19;10297041;28;20142;-58
2023/12/09 03:53:15;;;;;;;42.38;16.67;;;;;;;6.73;75.87;100152.00;10303141;28;20505;-59
2023/12/09 03:58:16;;;;;;;44.15;16.95;;;;;;;6.74;76.09;100151.00;10300481;28;20406;-59
2023/12/09 04:03:18;;;;;;;41.95;16.52;;;;;;;6.75;76.13;100155.38;10300763;28;20152;-58
2023/12/09 04:08:20;;;;;;;49.70;17.10;;;;;;;6.74;76.12;100161.69;10293493;28;20051;-59
2023/12/09 04:13:22;;;;;;;52.42;16.98;;;;;;;6.79;75.90;100150.53;10301047;28;20061;-59
2023/12/09 04:18:23;;;;;;;44.13;17.30;;;;;;;6.81;75.83;100145.03;10299921;28;20105;-59
2023/12/09 04:23:25;;;;;;;41.53;16.00;;;;;;;6.85;75.71;100135.69;10297527;28;20554;-58
2023/12/09 04:28:26;;;;;;;53.60;17.25;;;;;;;6.90;75.54;100130.75;10299202;28;20057;-58
2023/12/09 04:33:29;;;;;;;51.58;17.02;;;;;;;6.91;76.32;100116.38;10297901;28;20386;-58
2023/12/09 04:38:31;;;;;;;53.88;17.73;;;;;;;6.92;75.78;100110.88;10299928;28;20050;-57
2023/12/09 04:43:33;;;;;;;54.05;18.70;;;;;;;6.93;76.48;100117.03;10292043;28;20674;-57
2023/12/09 04:48:34;;;;;;;57.38;18.90;;;;;;;6.97;76.50;100110.41;10299212;28;20054;-57
2023/12/09 04:53:36;;;;;;;47.05;16.85;;;;;;;7.08;76.17;100111.97;10299351;28;20188;-57
2023/12/09 04:58:41;;;;;;;49.67;17.75;;;;;;;7.10;76.13;100104.63;10297625;28;20096;-57
2023/12/09 05:03:42;;;;;;;51.92;18.67;;;;;;;7.20;75.92;100097.31;10300533;28;20065;-58
2023/12/09 05:08:44;;;;;;;46.72;17.30;;;;;;;7.24;76.68;100098.66;10295557;28;20053;-57
2023/12/09 05:13:45;;;;;;;52.22;18.27;;;;;;;7.34;76.48;100093.19;10299301;28;20053;-59
2023/12/09 05:18:47;;;;;;;57.17;18.25;;;;;;;7.38;76.04;100080.34;10296171;28;20038;-57
2023/12/09 05:23:49;;;;;;;55.65;17.45;;;;;;;7.40;76.49;100092.53;10296285;28;20441;-57
2023/12/09 05:28:51;;;;;;;58.95;17.02;;;;;;;7.35;76.46;100093.03;10299296;28;20035;-58
2023/12/09 05:33:52;;;;;;;59.88;17.38;;;;;;;7.33;76.19;100075.50;10294371;28;20058;-57
2023/12/09 05:38:54;;;;;;;58.78;17.75;;;;;;;7.41;76.29;100085.38;10276564;28;20380;-57
2023/12/09 05:43:55;;;;;;;57.28;19.35;;;;;;;7.41;76.56;100088.06;10301662;28;20050;-57
2023/12/09 05:48:57;;;;;;;65.70;19.90;;;;;;;7.40;76.12;100081.00;10300043;28;20466;-57
2023/12/09 05:53:58;;;;;;;69.50;19.85;;;;;;;7.38;76.64;100061.63;10297632;28;20398;-58
2023/12/09 05:59:00;;;;;;;60.00;19.88;;;;;;;7.44;76.83;100063.66;10295293;28;20038;-57
2023/12/09 06:04:01;;;;;;;54.88;19.45;;;;;;;7.49;76.20;100058.66;10293074;28;20046;-57
2023/12/09 06:09:04;;;;;;;43.08;17.55;;;;;;;7.56;76.38;100051.63;10297999;28;20234;-57
2023/12/09 06:14:07;;;;;;;58.72;19.08;;;;;;;7.59;76.35;100059.34;10290665;28;20055;-57
2023/12/09 06:19:09;;;;;;;49.60;17.35;;;;;;;7.60;76.20;100041.44;10293228;28;20130;-57
2023/12/09 06:24:13;;;;;;;54.72;18.25;;;;;;;7.54;76.41;100030.44;10295523;28;20053;-57
2023/12/09 06:29:17;;;;;;;59.88;17.27;;;;;;;7.52;76.37;100047.63;10299438;28;20082;-57
2023/12/09 06:34:19;;;;;;;57.47;19.58;;;;;;;7.50;76.44;100039.78;10277724;28;20066;-57
2023/12/09 06:39:20;;;;;;;59.65;19.30;;;;;;;7.56;76.14;100035.59;10291919;28;20051;-57
2023/12/09 06:44:22;;;;;;;52.78;18.02;;;;;;;7.62;75.99;100026.06;10297294;28;20412;-57
2023/12/09 06:49:23;;;;;;;60.35;19.98;;;;;;;7.66;75.80;100041.66;10297477;28;20651;-57
2023/12/09 06:54:25;;;;;;;63.30;21.05;;;;;;;7.62;76.29;100029.59;10296772;28;20138;-58
2023/12/09 06:59:26;;;;;;;56.70;19.05;;;;;;;7.68;76.23;100031.63;10295621;28;20538;-58
2023/12/09 07:04:28;;;;;;;61.83;18.75;;;;;;;7.74;75.96;100027.41;10291729;28;20066;-59
2023/12/09 07:09:29;;;;;;;47.13;18.30;;;;;;;7.75;75.97;100032.59;10303892;28;20042;-56
2023/12/09 07:14:31;;;;;;;47.17;16.08;;;;;;;7.84;75.93;100027.25;10305537;28;20050;-59
2023/12/09 07:19:32;;;;;;;57.08;17.92;;;;;;;7.87;76.05;100035.81;10305660;28;20376;-60
2023/12/09 07:24:34;;;;;;;57.10;18.00;;;;;;;7.83;76.21;100045.16;10304851;28;20142;-59
2023/12/09 07:29:35;;;;;;;53.20;18.08;;;;;;;7.69;76.65;100046.66;10311233;28;20081;-59
2023/12/09 07:34:37;;;;;;;61.03;18.92;;;;;;;7.85;76.11;100043.16;10307581;28;20046;-60
2023/12/09 07:39:38;;;;;;;55.40;18.73;;;;;;;7.99;75.93;100030.13;10306425;28;20427;-58
2023/12/09 07:44:40;;;;;;;52.42;19.40;;;;;;;8.08;75.85;100023.78;10305792;28;20059;-62
2023/12/09 07:49:42;;;;;;;55.83;19.35;;;;;;;8.11;75.84;100020.75;10309568;28;20050;-60
2023/12/09 07:54:43;;;;;;;52.08;18.08;;;;;;;8.12;75.85;100015.22;10301059;28;20066;-60
2023/12/09 07:59:45;;;;;;;62.05;17.45;;;;;;;8.11;75.74;100004.69;10304098;28;20050;-57
2023/12/09 08:04:47;;;;;;;69.75;19.13;;;;;;;8.14;75.82;100013.22;10305773;28;20054;-65
2023/12/09 08:09:48;;;;;;;64.63;18.52;;;;;;;8.11;75.49;100018.91;10300980;28;20042;-65
2023/12/09 08:14:49;;;;;;;67.40;20.92;;;;;;;8.07;75.56;100001.50;10301481;28;20650;-65
2023/12/09 08:19:51;;;;;;;75.18;18.50;;;;;;;8.13;75.76;99994.66;10300652;28;20054;-64
2023/12/09 08:24:52;;;;;;;70.60;18.23;;;;;;;8.15;75.51;99984.59;10298712;28;20062;-63
2023/12/09 08:29:54;;;;;;;63.63;18.10;;;;;;;8.16;75.48;99988.13;10303549;28;20065;-64
2023/12/09 08:34:55;;;;;;;62.20;20.20;;;;;;;8.19;75.57;99975.22;10300943;28;20402;-64
2023/12/09 08:40:11;;;;;;;67.97;18.95;;;;;;;8.22;75.04;99963.34;10297967;28;20043;-62
2023/12/09 08:45:16;;;;;;;67.28;17.88;;;;;;;8.23;75.45;99957.81;10299931;28;20517;-61
2023/12/09 08:50:18;;;;;;;73.75;22.70;;;;;;;8.25;75.48;99954.97;10300497;28;20545;-61
2023/12/09 08:55:25;;;;;;;62.42;19.75;;;;;;;8.23;75.46;99948.94;10295806;28;20101;-61
2023/12/09 09:00:27;;;;;;;56.30;17.67;;;;;;;8.21;75.57;99948.28;10293905;28;20053;-62
2023/12/09 09:05:29;;;;;;;65.82;18.67;;;;;;;8.23;75.31;99936.38;10299251;28;20077;-61
2023/12/09 09:10:30;;;;;;;55.65;17.33;;;;;;;8.27;75.25;99929.72;10293127;28;20055;-61
2023/12/09 09:15:32;;;;;;;55.88;17.65;;;;;;;8.31;75.53;99908.75;10295916;28;20147;-61
2023/12/09 09:20:33;;;;;;;53.55;17.92;;;;;;;8.38;75.68;99895.53;10289503;28;20047;-63
2023/12/09 09:25:35;;;;;;;54.88;16.75;;;;;;;8.47;75.76;99889.16;10296315;28;20050;-63
2023/12/09 09:30:36;;;;;;;48.60;17.38;;;;;;;8.56;75.35;99884.59;10297064;28;20053;-63
2023/12/09 09:35:38;;;;;;;41.58;16.42;;;;;;;8.52;75.86;99898.34;10298766;28;20050;-62
2023/12/09 09:40:40;;;;;;;45.83;15.80;;;;;;;8.59;75.67;99886.91;10298342;28;20375;-63
2023/12/09 09:45:43;;;;;;;48.45;17.67;;;;;;;8.78;75.86;99901.75;10301205;28;20050;-61
2023/12/09 09:50:45;;;;;;;55.95;18.88;;;;;;;8.93;75.70;99900.81;10298093;28;20034;-63
2023/12/09 09:55:47;;;;;;;55.35;18.20;;;;;;;9.02;75.50;99908.81;10295036;28;20061;-62
2023/12/09 10:00:50;;;;;;;64.18;20.80;;;;;;;9.13;75.08;99901.19;10296552;28;20054;-63
2023/12/09 10:05:53;;;;;;;49.97;17.67;;;;;;;9.32;75.32;99896.38;10295856;28;20050;-61
2023/12/09 10:10:55;;;;;;;50.33;18.73;;;;;;;9.42;75.22;99880.88;10292242;28;20043;-63
2023/12/09 10:15:57;;;;;;;40.15;17.33;;;;;;;9.51;75.14;99852.13;10293145;28;20065;-64
2023/12/09 10:20:58;;;;;;;38.58;16.15;;;;;;;9.57;74.85;99854.06;10293374;28;20039;-61
2023/12/09 10:25:59;;;;;;;34.28;15.25;;;;;;;9.59;74.82;99829.75;10287705;28;20532;-56
2023/12/09 10:31:02;;;;;;;37.78;17.00;;;;;;;9.62;74.80;99805.25;10292013;28;20060;-58
2023/12/09 10:36:06;;;;;;;34.55;15.80;;;;;;;9.64;74.84;99785.25;10302019;28;20054;-60
2023/12/09 10:41:11;;;;;;;38.30;16.42;;;;;;;9.66;74.61;99787.75;10301234;28;20089;-56
2023/12/09 10:46:13;;;;;;;35.80;15.90;;;;;;;9.58;74.97;99769.03;10303360;28;20046;-58
2023/12/09 10:51:15;;;;;;;33.65;14.80;;;;;;;9.72;75.00;99733.34;10305750;28;20461;-57
2023/12/09 10:56:16;;;;;;;36.40;16.55;;;;;;;10.01;75.03;99728.94;10308839;28;20138;-61
2023/12/09 11:01:19;;;;;;;33.67;15.35;;;;;;;10.18;74.99;99695.50;10306054;28;20046;-57
2023/12/09 11:06:21;;;;;;;28.70;12.80;;;;;;;10.33;74.64;99687.44;10304805;28;20051;-60
2023/12/09 11:11:23;;;;;;;30.17;14.18;;;;;;;10.43;75.22;99674.50;10302461;28;20051;-60
2023/12/09 11:16:27;;;;;;;26.77;10.23;;;;;;;10.64;74.98;99657.56;10306695;28;20445;-69
2023/12/09 11:21:29;;;;;;;19.50;9.88;;;;;;;11.17;74.54;99637.44;10305063;28;20050;-61
2023/12/09 11:26:33;;;;;;;16.08;6.80;;;;;;;11.36;74.55;99622.47;10269555;28;1015821;-59
2023/12/09 11:31:41;;;;;;;14.70;4.85;;;;;;;11.52;74.73;99614.03;10303170;28;20042;-58
2023/12/09 11:36:44;;;;;;;12.13;4.00;;;;;;;11.53;74.56;99610.31;10303846;28;20051;-63
2023/12/09 11:41:47;;;;;;;11.98;4.53;;;;;;;11.48;74.76;99583.19;10300283;28;20576;-64
2023/12/09 11:46:49;;;;;;;14.38;3.83;;;;;;;11.60;74.57;99576.19;10301229;28;20046;-63
2023/12/09 11:51:50;;;;;;;11.38;3.45;;;;;;;11.65;74.07;99567.50;10302948;28;20077;-65
2023/12/09 11:56:51;;;;;;;11.52;3.05;;;;;;;11.60;74.23;99554.66;10302522;28;20047;-62
2023/12/09 12:01:53;;;;;;;9.35;2.85;;;;;;;11.43;74.44;99554.19;10286975;28;20050;-65
2023/12/09 12:06:54;;;;;;;9.23;2.50;;;;;;;11.40;73.91;99548.38;10302274;28;20050;-62
2023/12/09 12:11:56;;;;;;;9.52;2.55;;;;;;;11.40;74.05;99535.75;10300683;28;20046;-64
2023/12/09 12:16:59;;;;;;;10.68;2.42;;;;;;;11.34;74.24;99519.59;10307179;28;20050;-63
2023/12/09 12:22:00;;;;;;;7.15;2.65;;;;;;;11.34;73.89;99495.38;10302836;28;20042;-64
2023/12/09 12:27:02;;;;;;;10.45;2.47;;;;;;;11.23;73.46;99473.38;10303750;28;20046;-64
2023/12/09 12:32:11;;;;;;;3.88;2.28;;;;;;;11.00;73.69;99467.50;10299792;28;20042;-64
2023/12/09 12:37:13;;;;;;;5.15;2.47;;;;;;;11.08;73.52;99443.13;10309355;28;20039;-66
2023/12/09 12:42:14;;;;;;;13.68;2.33;;;;;;;11.08;73.61;99443.97;10300801;28;20050;-65
2023/12/09 12:47:16;;;;;;;7.90;2.95;;;;;;;11.01;73.47;99426.13;10270484;28;20153;-64
2023/12/09 12:52:17;;;;;;;8.80;2.40;;;;;;;11.05;73.13;99424.69;10301649;28;20045;-66
2023/12/09 12:57:19;;;;;;;7.07;2.58;;;;;;;11.11;73.15;99405.06;10302963;28;20401;-67
2023/12/09 13:02:22;;;;;;;8.82;3.55;;;;;;;11.08;72.99;99394.72;10285745;28;20042;-65
2023/12/09 13:07:23;;;;;;;7.05;2.40;;;;;;;11.00;72.92;99397.56;10290793;28;20129;-64
2023/12/09 13:12:25;;;;;;;8.35;2.67;;;;;;;10.96;72.74;99364.06;10300915;28;20049;-63
2023/12/09 13:17:28;;;;;;;8.13;1.98;;;;;;;10.85;72.86;99360.94;10298907;28;20486;-65
2023/12/09 13:22:30;;;;;;;2.90;1.80;;;;;;;10.73;73.00;99337.53;10272897;28;20129;-65
2023/12/09 13:27:32;;;;;;;5.80;2.15;;;;;;;10.86;72.82;99329.50;10281609;28;20065;-66
2023/12/09 13:32:34;;;;;;;9.63;2.28;;;;;;;10.97;72.75;99302.00;10299534;28;20083;-64
2023/12/09 13:37:38;;;;;;;4.88;1.30;;;;;;;11.05;72.51;99271.41;10299972;28;20136;-65
2023/12/09 13:42:39;;;;;;;9.02;1.60;;;;;;;10.94;72.94;99245.13;10299772;28;20038;-65
2023/12/09 13:47:41;;;;;;;4.15;1.38;;;;;;;10.82;72.91;99236.84;10300142;28;20042;-65
2023/12/09 13:52:42;;;;;;;8.45;1.08;;;;;;;10.80;72.84;99222.78;10298923;28;20100;-65
2023/12/09 13:57:44;;;;;;;5.63;1.23;;;;;;;10.71;72.81;99197.97;10294520;28;20533;-64
2023/12/09 14:02:46;;;;;;;6.05;1.60;;;;;;;10.68;72.67;99182.25;10294737;28;20049;-63
2023/12/09 14:07:47;;;;;;;7.10;1.88;;;;;;;10.51;72.75;99176.47;10278552;28;20513;-64
2023/12/09 14:12:48;;;;;;;1.63;0.88;;;;;;;10.55;72.76;99171.50;10293565;28;20046;-70
2023/12/09 14:17:50;;;;;;;4.50;1.48;;;;;;;10.45;73.05;99151.22;10308040;28;20046;-67
2023/12/09 14:22:52;;;;;;;5.15;1.20;;;;;;;10.30;72.72;99132.59;10299969;28;20058;-67
2023/12/09 14:27:54;;;;;;;3.45;0.75;;;;;;;10.25;73.10;99108.19;10315886;28;20402;-69
2023/12/09 14:32:55;;;;;;;3.33;1.13;;;;;;;10.16;73.25;99103.22;10313224;28;20077;-68
2023/12/09 14:37:57;;;;;;;6.05;0.80;;;;;;;10.05;73.68;99107.31;10299657;28;20137;-70
2023/12/09 14:43:05;;;;;;;6.18;1.02;;;;;;;9.89;73.88;99100.47;10298735;28;20050;-69
2023/12/09 14:48:08;;;;;;;3.88;0.90;;;;;;;9.60;74.54;99089.03;10307654;28;20046;-70
2023/12/09 14:53:13;;;;;;;2.85;1.10;;;;;;;9.56;74.79;99085.09;10313106;28;20073;-68
2023/12/09 14:58:14;;;;;;;4.78;0.80;;;;;;;9.48;74.78;99064.66;10295257;28;20060;-70
2023/12/09 15:03:16;;;;;;;4.30;1.02;;;;;;;9.36;75.19;99054.69;10308111;28;20066;-66
2023/12/09 15:08:18;;;;;;;2.15;0.70;;;;;;;9.11;75.99;99047.97;10306352;28;20054;-68
2023/12/09 15:13:19;;;;;;;5.45;0.85;;;;;;;8.99;76.28;99038.84;10301597;28;20046;-66
2023/12/09 15:18:21;;;;;;;4.53;0.77;;;;;;;8.80;76.75;99016.25;10354615;28;20058;-65
2023/12/09 15:23:22;;;;;;;6.18;0.77;;;;;;;8.71;77.10;99014.78;10344254;28;20156;-66
2023/12/09 15:28:27;;;;;;;2.65;0.80;;;;;;;8.61;77.16;98993.72;10354202;28;20058;-64
2023/12/09 15:33:28;;;;;;;3.22;0.68;;;;;;;8.68;76.83;98991.88;10350843;28;20043;-65
2023/12/09 15:38:31;;;;;;;2.92;0.80;;;;;;;8.60;77.44;98980.50;10336045;28;20089;-63
2023/12/09 15:43:33;;;;;;;4.75;0.98;;;;;;;8.55;77.53;98962.38;10340062;28;20065;-64
2023/12/09 15:48:34;;;;;;;9.27;2.20;;;;;;;8.70;77.27;98933.56;10321856;28;20109;-65
2023/12/09 15:58:52;;;;;;;3.17;1.08;;;;;;;8.73;77.45;98884.97;10453949;23;20078;-83
2023/12/09 16:03:54;;;;;;;6.38;0.90;;;;;;;8.69;77.56;98851.56;10350130;28;20046;-83
2023/12/09 16:08:56;;;;;;;3.70;0.85;;;;;;;8.69;77.81;98840.03;10337439;28;20054;-84
2023/12/09 16:13:58;;;;;;;6.15;1.40;;;;;;;8.46;78.33;98838.50;10365883;28;20039;-84
2023/12/09 16:18:59;;;;;;;6.20;1.10;;;;;;;8.43;78.63;98814.81;10348171;28;20046;-85
2023/12/09 16:24:01;;;;;;;5.45;1.92;;;;;;;8.43;78.95;98801.44;10299310;23;20051;-58
2023/12/09 16:29:03;;;;;;;7.38;1.02;;;;;;;8.41;79.19;98778.50;10273095;28;20051;-58
2023/12/09 16:34:05;;;;;;;5.35;0.85;;;;;;;8.43;78.93;98769.28;10232399;28;20047;-59
2023/12/09 16:39:07;;;;;;;4.15;1.00;;;;;;;8.37;79.20;98764.69;10232882;28;20081;-59
2023/12/09 16:44:08;;;;;;;3.25;1.17;;;;;;;8.41;78.99;98751.72;10229981;28;20091;-58
2023/12/09 16:49:12;;;;;;;5.80;1.05;;;;;;;8.38;79.17;98739.56;10237454;28;20058;-59
2023/12/09 16:54:13;;;;;;;2.50;0.90;;;;;;;8.37;79.39;98739.78;10237756;28;20079;-58
2023/12/09 16:59:15;;;;;;;5.25;0.80;;;;;;;8.31;79.21;98725.34;10237412;28;20058;-58
2023/12/09 17:04:16;;;;;;;2.00;0.60;;;;;;;8.29;79.45;98698.78;10240353;28;20051;-59
2023/12/09 17:09:20;;;;;;;1.42;0.55;;;;;;;8.20;79.67;98673.22;10236597;28;20126;-59
2023/12/09 17:14:21;;;;;;;1.15;0.60;;;;;;;8.19;79.96;98655.50;10236678;28;20043;-59
2023/12/09 17:19:23;;;;;;;0.85;0.40;;;;;;;8.20;80.19;98651.81;10238172;28;20051;-59
2023/12/09 17:24:24;;;;;;;1.35;0.43;;;;;;;8.23;79.70;98643.34;10234051;28;20059;-59
2023/12/09 17:29:26;;;;;;;2.75;0.50;;;;;;;8.25;79.91;98641.31;10231604;28;20427;-59
2023/12/09 17:34:30;;;;;;;3.65;1.65;;;;;;;8.43;79.31;98637.25;10238660;28;20107;-60
2023/12/09 17:39:32;;;;;;;2.13;0.88;;;;;;;8.54;79.15;98631.28;10235572;28;20078;-61
2023/12/09 17:44:34;;;;;;;3.65;1.20;;;;;;;8.42;79.66;98616.88;10255121;28;20134;-60
2023/12/09 17:49:35;;;;;;;3.53;1.00;;;;;;;8.40;79.84;98602.84;10237494;28;20062;-64
2023/12/09 17:54:37;;;;;;;6.55;1.23;;;;;;;8.37;79.93;98589.84;10237055;28;20414;-60
2023/12/09 17:59:38;;;;;;;3.35;1.60;;;;;;;8.44;79.78;98594.22;10225576;28;20106;-65
2023/12/09 18:04:40;;;;;;;4.32;1.10;;;;;;;8.44;80.16;98599.56;10230552;28;20051;-65
2023/12/09 18:09:43;;;;;;;4.25;1.35;;;;;;;8.50;79.64;98581.84;10222457;28;20414;-63
2023/12/09 18:14:45;;;;;;;2.35;1.17;;;;;;;8.46;80.02;98580.63;10226919;28;20054;-65
2023/12/09 18:19:46;;;;;;;2.90;0.80;;;;;;;8.32;80.64;98558.34;10228907;28;20040;-66
2023/12/09 18:24:48;;;;;;;1.17;0.60;;;;;;;8.28;80.80;98525.81;10233704;28;20055;-68
2023/12/09 18:29:50;;;;;;;1.70;0.90;;;;;;;8.26;81.18;98505.63;10224782;28;20522;-63
2023/12/09 18:34:51;;;;;;;3.42;0.88;;;;;;;8.16;81.18;98510.59;10231883;28;20046;-65
2023/12/09 18:39:53;;;;;;;2.60;1.08;;;;;;;8.23;81.30;98476.59;10229835;28;20047;-64
2023/12/09 18:44:54;;;;;;;2.20;1.00;;;;;;;8.19;81.49;98460.13;10239212;28;20047;-61
2023/12/09 18:49:58;;;;;;;3.85;0.82;;;;;;;8.19;81.49;98457.44;10273053;28;20111;-61
2023/12/09 18:55:00;;;;;;;3.65;1.17;;;;;;;8.19;81.38;98459.31;10269848;28;20051;-60
2023/12/09 19:00:03;;;;;;;2.67;1.25;;;;;;;8.21;81.57;98481.34;10269933;28;20099;-60
2023/12/09 19:05:05;;;;;;;2.53;1.10;;;;;;;8.20;81.68;98482.38;10264688;28;20106;-60
2023/12/09 19:10:07;;;;;;;5.70;1.60;;;;;;;8.16;81.65;98481.97;10271993;28;20063;-60
2023/12/09 19:15:09;;;;;;;5.00;1.40;;;;;;;8.13;81.93;98459.09;10265415;28;20043;-62
2023/12/09 19:20:11;;;;;;;4.20;1.92;;;;;;;8.19;82.12;98448.59;10264774;28;20071;-61
2023/12/09 19:25:13;;;;;;;4.05;1.65;;;;;;;8.22;82.00;98458.91;10242594;28;20055;-60
2023/12/09 19:30:15;;;;;;;5.57;2.17;;;;;;;8.24;82.08;98452.31;10241948;28;20062;-59
2023/12/09 19:35:17;;;;;;;4.35;2.10;;;;;;;8.27;81.95;98461.75;10250274;28;20044;-61
2023/12/09 19:40:22;;;;;;;7.43;2.58;;;;;;;8.19;81.91;98437.91;10249688;28;20477;-60
2023/12/09 19:45:26;;;;;;;5.93;2.20;;;;;;;8.23;81.84;98423.06;10243977;28;20094;-60
2023/12/09 19:50:28;;;;;;;5.00;2.30;;;;;;;8.20;81.97;98434.22;10229711;28;20047;-60
2023/12/09 19:55:29;;;;;;;4.55;2.08;;;;;;;8.20;82.03;98426.19;10236748;28;20050;-59
2023/12/09 20:00:31;;;;;;;5.53;2.50;;;;;;;8.19;82.46;98446.75;10233367;28;20051;-59
2023/12/09 20:05:32;;;;;;;5.70;2.92;;;;;;;8.20;82.41;98447.59;10235816;28;20059;-59
2023/12/09 20:10:34;;;;;;;7.45;3.20;;;;;;;8.23;82.38;98449.81;10227645;28;20435;-58
2023/12/09 20:15:37;;;;;;;8.80;3.65;;;;;;;8.25;82.14;98461.97;10226015;28;20568;-58
2023/12/09 20:20:39;;;;;;;9.38;4.35;;;;;;;8.34;82.16;98454.56;10234638;28;20533;-59
2023/12/09 20:25:40;;;;;;;8.98;4.30;;;;;;;8.32;82.22;98470.00;10240172;28;20078;-59
2023/12/09 20:30:42;;;;;;;9.93;5.15;;;;;;;8.36;82.86;98484.63;10237856;28;20044;-60
2023/12/09 20:35:43;;;;;;;8.60;4.95;;;;;;;8.30;82.40;98485.47;10239636;28;20063;-60
2023/12/09 20:40:45;;;;;;;8.88;4.07;;;;;;;8.32;82.40;98500.28;10232599;28;20055;-58
2023/12/09 20:45:47;;;;;;;12.20;5.55;;;;;;;8.38;82.43;98509.31;10233755;28;20044;-59
2023/12/09 20:50:48;;;;;;;11.57;5.30;;;;;;;8.40;82.51;98506.44;10240185;28;20043;-59
2023/12/09 20:55:49;;;;;;;12.93;6.00;;;;;;;8.46;82.22;98506.47;10237218;28;20553;-59
2023/12/09 21:00:51;;;;;;;15.80;6.60;;;;;;;8.47;82.35;98501.94;10235445;28;20047;-58
2023/12/09 21:05:52;;;;;;;14.10;6.88;;;;;;;8.45;82.25;98520.91;10233543;28;20075;-59
2023/12/09 21:10:54;;;;;;;13.25;6.50;;;;;;;8.53;82.25;98536.75;10232284;28;20658;-59
2023/12/09 21:15:55;;;;;;;15.75;6.97;;;;;;;8.57;82.11;98539.00;10224419;28;20067;-59
2023/12/09 21:20:57;;;;;;;17.50;7.90;;;;;;;8.57;82.06;98539.00;10242476;28;20051;-60
2023/12/09 21:25:58;;;;;;;15.88;7.82;;;;;;;8.50;82.44;98542.50;10238310;28;20098;-60
2023/12/09 21:31:00;;;;;;;13.18;6.15;;;;;;;8.45;82.58;98565.56;10237658;28;20043;-60
2023/12/09 21:36:01;;;;;;;14.43;6.82;;;;;;;8.49;82.55;98561.44;10245409;28;20074;-60
2023/12/09 21:41:02;;;;;;;17.88;7.00;;;;;;;8.60;82.05;98565.38;10240368;28;20051;-60
2023/12/09 21:46:04;;;;;;;16.20;8.00;;;;;;;8.56;82.39;98596.28;10231404;28;20055;-60
2023/12/09 21:51:06;;;;;;;15.27;7.65;;;;;;;8.61;82.51;98616.06;10231529;28;20494;-62
2023/12/09 21:56:25;;;;;;;18.92;8.73;;;;;;;8.64;82.19;98604.09;10241340;28;20110;-60
2023/12/09 22:01:26;;;;;;;23.30;8.38;;;;;;;8.62;82.28;98596.25;10239643;28;20471;-60
2023/12/09 22:06:29;;;;;;;26.05;8.60;;;;;;;8.51;82.63;98608.44;10233145;28;20055;-60
2023/12/09 22:11:30;;;;;;;17.15;7.65;;;;;;;8.46;82.41;98610.88;10239784;28;20138;-60
2023/12/09 22:16:31;;;;;;;12.43;6.43;;;;;;;8.44;82.65;98629.00;10233532;28;20047;-66
2023/12/09 22:21:40;;;;;;;13.18;7.00;;;;;;;8.42;82.59;98649.81;10229338;28;20054;-66
2023/12/09 22:26:43;;;;;;;11.32;5.75;;;;;;;8.41;82.64;98674.97;10224024;28;20672;-64
2023/12/09 22:31:45;;;;;;;13.38;5.40;;;;;;;8.43;82.54;98685.44;10221182;28;20055;-65
2023/12/09 22:36:46;;;;;;;14.85;6.88;;;;;;;8.49;82.46;98682.78;10220404;28;20066;-66
2023/12/09 22:41:48;;;;;;;15.23;6.45;;;;;;;8.54;82.58;98691.03;10240959;28;20046;-67
2023/12/09 22:46:50;;;;;;;12.57;6.40;;;;;;;8.58;82.54;98706.69;10226081;28;20051;-66
2023/12/09 22:51:51;;;;;;;12.70;5.28;;;;;;;8.57;82.80;98713.91;10230202;28;20486;-66
2023/12/09 22:56:52;;;;;;;11.32;4.97;;;;;;;8.62;82.69;98727.50;10239334;28;20502;-67
2023/12/09 23:01:54;;;;;;;11.63;5.93;;;;;;;8.62;82.99;98732.03;10236365;28;20047;-67
2023/12/09 23:06:55;;;;;;;7.55;4.03;;;;;;;8.70;82.65;98754.09;10237176;28;20052;-65
2023/12/09 23:11:57;;;;;;;10.65;4.10;;;;;;;8.70;82.62;98769.34;10243990;28;20043;-62
2023/12/09 23:16:58;;;;;;;9.45;3.20;;;;;;;8.72;82.64;98786.84;10240737;28;20050;-65